Terminal Aerodrome Forecast
Issued by NWS

Home | Current Version | Previous Version | Text Only | Print | Product List | Glossary On
Versions: 1 2 3 4 5 6 7 8 9 10 11 12 13 14 15 16 17 18
000
FTUS46 KMTR 220555
TAFOAK
TAF
KOAK 220555Z 2206/2312 13020G28KT P6SM -RA OVC040 WS020/15040KT
     FM220900 15030G40KT 3SM RA OVC025 WS020/17060KT
     FM221200 16020G30KT 6SM SHRA OVC030
     FM221800 18010KT P6SM VCTS SCT030 BKN050CB
     FM222100 21015G25KT P6SM -SHRA VCTS BKN030 OVC050CB
     FM230300 23012G19KT P6SM SCT050 BKN080=

USA.gov is the U.S. government's official web portal to all federal, state and local government web resources and services.